sensor_id;sensor_type;location;lat;lon;timestamp;pressure;altitude;pressure_sealevel;temperature;humidity
33781;BME280;20097;50.832;19.100;2023-07-29T00:00:08;97666.34;;;16.36;100.00
33781;BME280;20097;50.832;19.100;2023-07-29T00:05:16;97669.19;;;16.23;100.00
33781;BME280;20097;50.832;19.100;2023-07-29T00:10:22;97673.03;;;16.09;100.00
33781;BME280;20097;50.832;19.100;2023-07-29T00:15:27;97679.19;;;16.03;100.00
33781;BME280;20097;50.832;19.100;2023-07-29T00:20:31;97673.34;;;16.01;100.00
33781;BME280;20097;50.832;19.100;2023-07-29T00:25:37;97678.25;;;15.97;100.00
33781;BME280;20097;50.832;19.100;2023-07-29T00:30:42;97680.38;;;15.89;100.00
33781;BME280;20097;50.832;19.100;2023-07-29T00:35:47;97686.31;;;15.84;100.00
33781;BME280;20097;50.832;19.100;2023-07-29T00:40:53;97669.16;;;15.82;100.00
33781;BME280;20097;50.832;19.100;2023-07-29T00:45:57;97677.25;;;15.80;100.00
33781;BME280;20097;50.832;19.100;2023-07-29T00:51:02;97679.66;;;15.82;100.00
33781;BME280;20097;50.832;19.100;2023-07-29T00:56:08;97683.75;;;15.78;100.00
33781;BME280;20097;50.832;19.100;2023-07-29T01:01:14;97677.25;;;15.80;100.00
33781;BME280;20097;50.832;19.100;2023-07-29T01:06:22;97679.97;;;15.74;100.00
33781;BME280;20097;50.832;19.100;2023-07-29T01:11:38;97681.41;;;15.70;100.00
33781;BME280;20097;50.832;19.100;2023-07-29T01:16:52;97681.28;;;15.65;100.00
33781;BME280;20097;50.832;19.100;2023-07-29T01:21:57;97670.81;;;15.58;100.00
33781;BME280;20097;50.832;19.100;2023-07-29T01:27:07;97671.50;;;15.54;100.00
33781;BME280;20097;50.832;19.100;2023-07-29T01:32:19;97673.38;;;15.47;100.00
33781;BME280;20097;50.832;19.100;2023-07-29T01:37:27;97669.75;;;15.48;100.00
33781;BME280;20097;50.832;19.100;2023-07-29T01:42:35;97669.97;;;15.46;100.00
33781;BME280;20097;50.832;19.100;2023-07-29T01:47:40;97669.75;;;15.48;100.00
33781;BME280;20097;50.832;19.100;2023-07-29T01:52:45;97672.16;;;15.49;100.00
33781;BME280;20097;50.832;19.100;2023-07-29T01:57:51;97682.00;;;15.54;100.00
33781;BME280;20097;50.832;19.100;2023-07-29T02:02:58;97677.66;;;15.48;100.00
33781;BME280;20097;50.832;19.100;2023-07-29T02:08:03;97684.13;;;15.45;100.00
33781;BME280;20097;50.832;19.100;2023-07-29T02:13:08;97682.56;;;15.38;100.00
33781;BME280;20097;50.832;19.100;2023-07-29T02:18:13;97685.03;;;15.33;100.00
33781;BME280;20097;50.832;19.100;2023-07-29T02:23:18;97682.72;;;15.25;100.00
33781;BME280;20097;50.832;19.100;2023-07-29T02:28:24;97685.19;;;15.20;100.00
33781;BME280;20097;50.832;19.100;2023-07-29T02:33:28;97682.78;;;15.18;100.00
33781;BME280;20097;50.832;19.100;2023-07-29T02:38:32;97685.47;;;15.11;100.00
33781;BME280;20097;50.832;19.100;2023-07-29T02:43:39;97688.97;;;15.05;100.00
33781;BME280;20097;50.832;19.100;2023-07-29T02:48:45;97695.66;;;15.01;100.00
33781;BME280;20097;50.832;19.100;2023-07-29T02:53:49;97699.75;;;14.97;100.00
33781;BME280;20097;50.832;19.100;2023-07-29T02:58:55;97702.44;;;14.91;100.00
33781;BME280;20097;50.832;19.100;2023-07-29T03:03:59;97695.19;;;14.86;100.00
33781;BME280;20097;50.832;19.100;2023-07-29T03:09:05;97707.41;;;14.99;100.00
33781;BME280;20097;50.832;19.100;2023-07-29T03:14:10;97707.41;;;14.99;100.00
33781;BME280;20097;50.832;19.100;2023-07-29T03:19:15;97716.53;;;14.96;100.00
33781;BME280;20097;50.832;19.100;2023-07-29T03:24:20;97715.78;;;14.89;100.00
33781;BME280;20097;50.832;19.100;2023-07-29T03:29:26;97715.84;;;14.83;100.00
33781;BME280;20097;50.832;19.100;2023-07-29T03:34:31;97719.47;;;14.82;100.00
33781;BME280;20097;50.832;19.100;2023-07-29T03:39:36;97725.44;;;14.95;100.00
33781;BME280;20097;50.832;19.100;2023-07-29T03:44:42;97711.44;;;15.01;100.00
33781;BME280;20097;50.832;19.100;2023-07-29T03:49:46;97715.63;;;15.09;100.00
33781;BME280;20097;50.832;19.100;2023-07-29T03:54:53;97717.75;;;15.19;100.00
33781;BME280;20097;50.832;19.100;2023-07-29T03:59:58;97713.97;;;15.33;100.00
33781;BME280;20097;50.832;19.100;2023-07-29T04:05:04;97717.69;;;15.50;100.00
33781;BME280;20097;50.832;19.100;2023-07-29T04:10:09;97721.19;;;15.62;100.00
33781;BME280;20097;50.832;19.100;2023-07-29T04:15:16;97731.34;;;15.76;100.00
33781;BME280;20097;50.832;19.100;2023-07-29T04:20:20;97724.09;;;15.90;100.00
33781;BME280;20097;50.832;19.100;2023-07-29T04:25:24;97740.56;;;16.03;100.00
33781;BME280;20097;50.832;19.100;2023-07-29T04:30:30;97750.69;;;16.18;100.00
33781;BME280;20097;50.832;19.100;2023-07-29T04:35:34;97747.59;;;16.39;100.00
33781;BME280;20097;50.832;19.100;2023-07-29T04:40:39;97745.47;;;16.59;100.00
33781;BME280;20097;50.832;19.100;2023-07-29T04:45:45;97732.84;;;16.79;100.00
33781;BME280;20097;50.832;19.100;2023-07-29T04:50:49;97739.97;;;17.02;100.00
33781;BME280;20097;50.832;19.100;2023-07-29T04:55:54;97750.53;;;17.25;100.00
33781;BME280;20097;50.832;19.100;2023-07-29T05:00:59;97760.75;;;17.44;100.00
33781;BME280;20097;50.832;19.100;2023-07-29T05:06:04;97764.78;;;17.58;100.00
33781;BME280;20097;50.832;19.100;2023-07-29T05:11:08;97765.13;;;17.73;100.00
33781;BME280;20097;50.832;19.100;2023-07-29T05:16:14;97774.88;;;17.85;100.00
33781;BME280;20097;50.832;19.100;2023-07-29T05:21:19;97786.00;;;17.87;100.00
33781;BME280;20097;50.832;19.100;2023-07-29T05:26:24;97786.56;;;18.00;100.00
33781;BME280;20097;50.832;19.100;2023-07-29T05:31:30;97790.66;;;18.08;100.00
33781;BME280;20097;50.832;19.100;2023-07-29T05:36:34;97786.59;;;18.28;100.00
33781;BME280;20097;50.832;19.100;2023-07-29T05:41:39;97799.78;;;18.40;100.00
33781;BME280;20097;50.832;19.100;2023-07-29T05:46:45;97802.31;;;18.35;100.00
33781;BME280;20097;50.832;19.100;2023-07-29T05:51:50;97805.19;;;18.45;100.00
33781;BME280;20097;50.832;19.100;2023-07-29T05:56:56;97808.94;;;18.60;100.00
33781;BME280;20097;50.832;19.100;2023-07-29T06:02:01;97802.97;;;18.81;100.00
33781;BME280;20097;50.832;19.100;2023-07-29T06:07:07;97799.72;;;19.07;100.00
33781;BME280;20097;50.832;19.100;2023-07-29T06:12:11;97802.00;;;19.32;100.00
33781;BME280;20097;50.832;19.100;2023-07-29T06:17:17;97812.91;;;19.52;100.00
33781;BME280;20097;50.832;19.100;2023-07-29T06:22:21;97812.41;;;19.72;100.00
33781;BME280;20097;50.832;19.100;2023-07-29T06:27:26;97821.66;;;19.91;100.00
33781;BME280;20097;50.832;19.100;2023-07-29T06:32:33;97828.78;;;20.07;100.00
33781;BME280;20097;50.832;19.100;2023-07-29T06:37:38;97830.84;;;20.21;100.00
33781;BME280;20097;50.832;19.100;2023-07-29T06:42:42;97828.97;;;20.38;100.00
33781;BME280;20097;50.832;19.100;2023-07-29T06:47:47;97833.06;;;20.73;100.00
33781;BME280;20097;50.832;19.100;2023-07-29T06:52:52;97825.31;;;20.93;100.00
33781;BME280;20097;50.832;19.100;2023-07-29T06:57:56;97826.28;;;21.08;100.00
33781;BME280;20097;50.832;19.100;2023-07-29T07:03:02;97825.66;;;21.28;100.00
33781;BME280;20097;50.832;19.100;2023-07-29T07:08:06;97821.78;;;21.40;100.00
33781;BME280;20097;50.832;19.100;2023-07-29T07:13:11;97825.16;;;21.62;100.00
33781;BME280;20097;50.832;19.100;2023-07-29T07:18:16;97822.66;;;21.88;100.00
33781;BME280;20097;50.832;19.100;2023-07-29T07:23:21;97825.13;;;21.99;100.00
33781;BME280;20097;50.832;19.100;2023-07-29T07:28:25;97822.25;;;22.06;100.00
33781;BME280;20097;50.832;19.100;2023-07-29T07:33:31;97825.25;;;22.19;100.00
33781;BME280;20097;50.832;19.100;2023-07-29T07:38:35;97820.50;;;22.26;100.00
33781;BME280;20097;50.832;19.100;2023-07-29T07:43:39;97819.50;;;22.42;100.00
33781;BME280;20097;50.832;19.100;2023-07-29T07:48:45;97817.97;;;22.56;100.00
33781;BME280;20097;50.832;19.100;2023-07-29T07:53:49;97827.56;;;22.57;100.00
33781;BME280;20097;50.832;19.100;2023-07-29T07:58:54;97821.50;;;22.77;100.00
33781;BME280;20097;50.832;19.100;2023-07-29T08:03:59;97821.25;;;22.93;100.00
33781;BME280;20097;50.832;19.100;2023-07-29T08:09:04;97816.22;;;22.97;100.00
33781;BME280;20097;50.832;19.100;2023-07-29T08:14:08;97808.53;;;23.05;100.00
33781;BME280;20097;50.832;19.100;2023-07-29T08:19:14;97811.97;;;23.21;99.68
33781;BME280;20097;50.832;19.100;2023-07-29T08:24:18;97798.44;;;23.38;100.00
33781;BME280;20097;50.832;19.100;2023-07-29T08:29:22;97800.81;;;23.49;98.11
33781;BME280;20097;50.832;19.100;2023-07-29T08:34:28;97797.63;;;23.62;94.75
33781;BME280;20097;50.832;19.100;2023-07-29T08:39:33;97789.31;;;23.84;95.00
33781;BME280;20097;50.832;19.100;2023-07-29T08:44:41;97794.09;;;23.92;97.45
33781;BME280;20097;50.832;19.100;2023-07-29T08:49:48;97787.66;;;24.13;99.03
33781;BME280;20097;50.832;19.100;2023-07-29T08:54:55;97784.91;;;24.33;91.88
33781;BME280;20097;50.832;19.100;2023-07-29T09:00:01;97789.16;;;24.39;92.01
33781;BME280;20097;50.832;19.100;2023-07-29T09:05:09;97779.78;;;24.47;89.39
33781;BME280;20097;50.832;19.100;2023-07-29T09:10:14;97780.50;;;24.62;89.50
33781;BME280;20097;50.832;19.100;2023-07-29T09:15:28;97782.00;;;24.83;85.64
33781;BME280;20097;50.832;19.100;2023-07-29T09:20:34;97782.81;;;24.79;86.37
33781;BME280;20097;50.832;19.100;2023-07-29T09:25:40;97779.94;;;24.75;81.36
33781;BME280;20097;50.832;19.100;2023-07-29T09:30:46;97772.69;;;25.14;83.48
33781;BME280;20097;50.832;19.100;2023-07-29T09:35:53;97777.94;;;25.24;85.05
33781;BME280;20097;50.832;19.100;2023-07-29T09:40:57;97769.50;;;25.12;81.72
33781;BME280;20097;50.832;19.100;2023-07-29T09:46:02;97768.94;;;25.15;75.35
33781;BME280;20097;50.832;19.100;2023-07-29T09:51:12;97763.88;;;25.47;76.50
33781;BME280;20097;50.832;19.100;2023-07-29T09:56:17;97750.78;;;25.75;73.02
33781;BME280;20097;50.832;19.100;2023-07-29T10:01:22;97751.31;;;26.00;70.65
33781;BME280;20097;50.832;19.100;2023-07-29T10:06:29;97745.59;;;26.12;69.81
33781;BME280;20097;50.832;19.100;2023-07-29T10:11:34;97743.16;;;25.87;65.25
33781;BME280;20097;50.832;19.100;2023-07-29T10:16:40;97739.44;;;26.11;68.60
33781;BME280;20097;50.832;19.100;2023-07-29T10:21:49;97735.84;;;26.21;68.75
33781;BME280;20097;50.832;19.100;2023-07-29T10:26:55;97731.16;;;26.31;66.61
33781;BME280;20097;50.832;19.100;2023-07-29T10:32:02;97735.56;;;26.59;68.50
33781;BME280;20097;50.832;19.100;2023-07-29T10:37:19;97739.88;;;26.18;62.51
33781;BME280;20097;50.832;19.100;2023-07-29T10:42:25;97737.22;;;26.37;63.67
33781;BME280;20097;50.832;19.100;2023-07-29T10:47:29;97740.53;;;26.29;62.30
33781;BME280;20097;50.832;19.100;2023-07-29T10:52:44;97727.94;;;26.71;64.05
33781;BME280;20097;50.832;19.100;2023-07-29T10:57:54;97728.50;;;26.87;63.59
33781;BME280;20097;50.832;19.100;2023-07-29T11:03:08;97740.00;;;27.06;61.70
33781;BME280;20097;50.832;19.100;2023-07-29T11:08:23;97729.34;;;27.01;64.44
33781;BME280;20097;50.832;19.100;2023-07-29T11:13:32;97724.34;;;27.59;61.85
33781;BME280;20097;50.832;19.100;2023-07-29T11:18:37;97726.47;;;27.30;57.54
33781;BME280;20097;50.832;19.100;2023-07-29T11:23:44;97710.44;;;27.70;60.27
33781;BME280;20097;50.832;19.100;2023-07-29T11:28:48;97706.59;;;27.63;57.77
33781;BME280;20097;50.832;19.100;2023-07-29T11:33:54;97711.03;;;27.54;58.30
33781;BME280;20097;50.832;19.100;2023-07-29T11:39:09;97696.94;;;28.30;58.67
33781;BME280;20097;50.832;19.100;2023-07-29T11:44:17;97708.13;;;28.59;57.24
33781;BME280;20097;50.832;19.100;2023-07-29T11:49:21;97693.38;;;29.44;55.35
33781;BME280;20097;50.832;19.100;2023-07-29T11:54:27;97697.06;;;29.57;55.16
33781;BME280;20097;50.832;19.100;2023-07-29T11:59:33;97680.06;;;29.39;58.07
33781;BME280;20097;50.832;19.100;2023-07-29T12:04:38;97683.75;;;28.42;60.70
33781;BME280;20097;50.832;19.100;2023-07-29T12:09:45;97672.13;;;29.65;58.48
33781;BME280;20097;50.832;19.100;2023-07-29T12:14:50;97673.31;;;28.98;54.05
33781;BME280;20097;50.832;19.100;2023-07-29T12:19:55;97668.50;;;28.64;54.21
33781;BME280;20097;50.832;19.100;2023-07-29T12:25:01;97664.59;;;28.92;55.90
33781;BME280;20097;50.832;19.100;2023-07-29T12:30:10;97660.31;;;29.13;58.72
33781;BME280;20097;50.832;19.100;2023-07-29T12:35:15;97651.78;;;29.42;55.37
33781;BME280;20097;50.832;19.100;2023-07-29T12:40:25;97647.91;;;29.65;57.05
33781;BME280;20097;50.832;19.100;2023-07-29T12:46:10;97639.78;;;29.48;52.88
33781;BME280;20097;50.832;19.100;2023-07-29T12:51:27;97641.13;;;30.32;54.20
33781;BME280;20097;50.832;19.100;2023-07-29T12:56:33;97650.28;;;30.91;50.68
33781;BME280;20097;50.832;19.100;2023-07-29T13:01:38;97624.34;;;31.33;51.90
33781;BME280;20097;50.832;19.100;2023-07-29T13:06:43;97623.78;;;29.99;54.40
33781;BME280;20097;50.832;19.100;2023-07-29T13:11:48;97620.63;;;31.46;52.23
33781;BME280;20097;50.832;19.100;2023-07-29T13:16:53;97628.91;;;30.35;53.01
33781;BME280;20097;50.832;19.100;2023-07-29T13:21:57;97614.41;;;31.08;54.62
33781;BME280;20097;50.832;19.100;2023-07-29T13:27:03;97615.53;;;31.53;52.10
33781;BME280;20097;50.832;19.100;2023-07-29T13:32:08;97611.25;;;32.10;49.01
33781;BME280;20097;50.832;19.100;2023-07-29T13:37:12;97602.91;;;32.77;50.11
33781;BME280;20097;50.832;19.100;2023-07-29T13:42:19;97606.47;;;32.89;47.58
33781;BME280;20097;50.832;19.100;2023-07-29T13:47:24;97600.50;;;32.63;48.68
33781;BME280;20097;50.832;19.100;2023-07-29T13:52:28;97595.00;;;31.60;49.63
33781;BME280;20097;50.832;19.100;2023-07-29T13:57:34;97587.69;;;30.00;52.54
33781;BME280;20097;50.832;19.100;2023-07-29T14:02:38;97587.22;;;30.84;52.35
33781;BME280;20097;50.832;19.100;2023-07-29T14:07:43;97585.47;;;30.02;51.41
33781;BME280;20097;50.832;19.100;2023-07-29T14:12:48;97581.22;;;30.10;51.91
33781;BME280;20097;50.832;19.100;2023-07-29T14:17:53;97575.72;;;29.58;53.52
33781;BME280;20097;50.832;19.100;2023-07-29T14:22:57;97571.13;;;29.11;55.19
33781;BME280;20097;50.832;19.100;2023-07-29T14:28:03;97558.06;;;28.66;55.42
33781;BME280;20097;50.832;19.100;2023-07-29T14:33:08;97553.44;;;28.13;58.03
33781;BME280;20097;50.832;19.100;2023-07-29T14:38:12;97551.22;;;28.15;60.85
33781;BME280;20097;50.832;19.100;2023-07-29T14:43:19;97551.66;;;28.75;59.43
33781;BME280;20097;50.832;19.100;2023-07-29T14:48:23;97552.88;;;28.47;60.65
33781;BME280;20097;50.832;19.100;2023-07-29T14:53:27;97547.41;;;27.94;58.53
33781;BME280;20097;50.832;19.100;2023-07-29T14:58:33;97554.44;;;29.31;55.74
33781;BME280;20097;50.832;19.100;2023-07-29T15:03:38;97551.75;;;29.79;52.99
33781;BME280;20097;50.832;19.100;2023-07-29T15:08:43;97554.56;;;29.18;54.17
33781;BME280;20097;50.832;19.100;2023-07-29T15:13:49;97549.41;;;28.69;56.99
33781;BME280;20097;50.832;19.100;2023-07-29T15:18:53;97555.50;;;28.83;58.59
33781;BME280;20097;50.832;19.100;2023-07-29T15:23:57;97562.91;;;29.64;57.81
33781;BME280;20097;50.832;19.100;2023-07-29T15:29:02;97564.84;;;29.24;55.66
33781;BME280;20097;50.832;19.100;2023-07-29T15:34:08;97559.34;;;28.46;59.68
33781;BME280;20097;50.832;19.100;2023-07-29T15:39:12;97545.97;;;28.10;60.50
33781;BME280;20097;50.832;19.100;2023-07-29T15:44:18;97550.59;;;27.96;62.49
33781;BME280;20097;50.832;19.100;2023-07-29T15:49:23;97550.09;;;27.94;65.74
33781;BME280;20097;50.832;19.100;2023-07-29T15:54:28;97543.66;;;28.17;64.68
33781;BME280;20097;50.832;19.100;2023-07-29T15:59:34;97541.13;;;27.99;67.59
33781;BME280;20097;50.832;19.100;2023-07-29T16:04:38;97536.84;;;27.49;66.93
33781;BME280;20097;50.832;19.100;2023-07-29T16:09:42;97530.72;;;27.08;68.33
33781;BME280;20097;50.832;19.100;2023-07-29T16:14:49;97515.69;;;26.66;70.90
33781;BME280;20097;50.832;19.100;2023-07-29T16:19:55;97511.44;;;26.33;72.38
33781;BME280;20097;50.832;19.100;2023-07-29T16:25:00;97508.88;;;26.09;74.74
33781;BME280;20097;50.832;19.100;2023-07-29T16:30:08;97500.13;;;25.85;76.57
33781;BME280;20097;50.832;19.100;2023-07-29T16:35:12;97497.97;;;25.68;75.86
33781;BME280;20097;50.832;19.100;2023-07-29T16:40:17;97500.41;;;25.46;76.54
33781;BME280;20097;50.832;19.100;2023-07-29T16:45:24;97496.03;;;25.32;79.55
33781;BME280;20097;50.832;19.100;2023-07-29T16:50:28;97488.66;;;25.00;82.61
33781;BME280;20097;50.832;19.100;2023-07-29T16:55:32;97480.63;;;24.82;83.00
33781;BME280;20097;50.832;19.100;2023-07-29T17:00:38;97480.97;;;24.75;83.85
33781;BME280;20097;50.832;19.100;2023-07-29T17:05:43;97474.19;;;24.54;84.65
33781;BME280;20097;50.832;19.100;2023-07-29T17:10:47;97478.50;;;24.50;87.12
33781;BME280;20097;50.832;19.100;2023-07-29T17:15:53;97470.09;;;24.38;88.00
33781;BME280;20097;50.832;19.100;2023-07-29T17:20:57;97467.59;;;24.23;90.25
33781;BME280;20097;50.832;19.100;2023-07-29T17:26:03;97466.06;;;24.12;93.31
33781;BME280;20097;50.832;19.100;2023-07-29T17:31:09;97464.31;;;23.97;93.49
33781;BME280;20097;50.832;19.100;2023-07-29T17:36:14;97461.75;;;23.82;95.17
33781;BME280;20097;50.832;19.100;2023-07-29T17:41:18;97461.56;;;23.69;95.66
33781;BME280;20097;50.832;19.100;2023-07-29T17:46:25;97485.34;;;23.60;96.02
33781;BME280;20097;50.832;19.100;2023-07-29T17:51:29;97487.59;;;23.43;96.38
33781;BME280;20097;50.832;19.100;2023-07-29T17:56:33;97512.19;;;23.10;94.51
33781;BME280;20097;50.832;19.100;2023-07-29T18:01:39;97516.31;;;22.57;100.00
33781;BME280;20097;50.832;19.100;2023-07-29T18:06:44;97505.31;;;21.53;100.00
33781;BME280;20097;50.832;19.100;2023-07-29T18:11:49;97505.63;;;20.95;100.00
33781;BME280;20097;50.832;19.100;2023-07-29T18:16:55;97491.06;;;20.51;100.00
33781;BME280;20097;50.832;19.100;2023-07-29T18:21:59;97495.97;;;20.32;100.00
33781;BME280;20097;50.832;19.100;2023-07-29T18:27:04;97521.34;;;20.23;100.00
33781;BME280;20097;50.832;19.100;2023-07-29T18:32:12;97518.81;;;20.12;100.00
33781;BME280;20097;50.832;19.100;2023-07-29T18:37:17;97518.22;;;20.00;100.00
33781;BME280;20097;50.832;19.100;2023-07-29T18:42:21;97537.53;;;19.95;100.00
33781;BME280;20097;50.832;19.100;2023-07-29T18:47:27;97548.00;;;19.85;100.00
33781;BME280;20097;50.832;19.100;2023-07-29T18:52:31;97541.56;;;19.76;100.00
33781;BME280;20097;50.832;19.100;2023-07-29T18:57:35;97550.81;;;19.74;100.00
33781;BME280;20097;50.832;19.100;2023-07-29T19:02:41;97565.53;;;19.65;100.00
33781;BME280;20097;50.832;19.100;2023-07-29T19:07:47;97557.31;;;19.61;100.00
33781;BME280;20097;50.832;19.100;2023-07-29T19:12:52;97555.06;;;19.53;100.00
33781;BME280;20097;50.832;19.100;2023-07-29T19:18:01;97560.09;;;19.50;100.00
33781;BME280;20097;50.832;19.100;2023-07-29T19:23:05;97558.66;;;19.42;100.00
33781;BME280;20097;50.832;19.100;2023-07-29T19:28:10;97554.34;;;19.36;100.00
33781;BME280;20097;50.832;19.100;2023-07-29T19:33:16;97551.09;;;19.29;100.00
33781;BME280;20097;50.832;19.100;2023-07-29T19:38:20;97560.47;;;19.20;100.00
33781;BME280;20097;50.832;19.100;2023-07-29T19:43:24;97558.75;;;19.09;100.00
33781;BME280;20097;50.832;19.100;2023-07-29T19:48:31;97549.06;;;18.98;100.00
33781;BME280;20097;50.832;19.100;2023-07-29T19:53:35;97556.66;;;18.89;100.00
33781;BME280;20097;50.832;19.100;2023-07-29T19:58:40;97542.78;;;18.82;100.00
33781;BME280;20097;50.832;19.100;2023-07-29T20:03:49;97545.78;;;18.69;100.00
33781;BME280;20097;50.832;19.100;2023-07-29T20:08:53;97536.97;;;18.64;100.00
33781;BME280;20097;50.832;19.100;2023-07-29T20:13:57;97537.44;;;18.61;100.00
33781;BME280;20097;50.832;19.100;2023-07-29T20:19:03;97545.72;;;18.48;100.00
33781;BME280;20097;50.832;19.100;2023-07-29T20:24:10;97539.09;;;18.45;100.00
33781;BME280;20097;50.832;19.100;2023-07-29T20:29:14;97542.47;;;18.41;100.00
33781;BME280;20097;50.832;19.100;2023-07-29T20:34:19;97547.56;;;18.31;100.00
33781;BME280;20097;50.832;19.100;2023-07-29T20:39:24;97556.13;;;18.21;100.00
33781;BME280;20097;50.832;19.100;2023-07-29T20:44:28;97556.72;;;18.12;100.00
33781;BME280;20097;50.832;19.100;2023-07-29T20:49:34;97566.19;;;18.08;100.00
33781;BME280;20097;50.832;19.100;2023-07-29T20:54:39;97564.50;;;18.02;100.00
33781;BME280;20097;50.832;19.100;2023-07-29T20:59:43;97561.19;;;17.95;100.00
33781;BME280;20097;50.832;19.100;2023-07-29T21:04:48;97557.34;;;17.86;100.00
33781;BME280;20097;50.832;19.100;2023-07-29T21:09:53;97570.47;;;17.81;100.00
33781;BME280;20097;50.832;19.100;2023-07-29T21:14:57;97560.34;;;17.77;100.00
33781;BME280;20097;50.832;19.100;2023-07-29T21:20:05;97554.19;;;17.72;100.00
33781;BME280;20097;50.832;19.100;2023-07-29T21:25:09;97554.44;;;17.70;100.00
33781;BME280;20097;50.832;19.100;2023-07-29T21:30:14;97551.69;;;17.65;100.00
33781;BME280;20097;50.832;19.100;2023-07-29T21:35:19;97551.59;;;17.60;100.00
33781;BME280;20097;50.832;19.100;2023-07-29T21:40:24;97552.09;;;17.57;100.00
33781;BME280;20097;50.832;19.100;2023-07-29T21:45:28;97547.19;;;17.49;100.00
33781;BME280;20097;50.832;19.100;2023-07-29T21:50:34;97554.03;;;17.50;100.00
33781;BME280;20097;50.832;19.100;2023-07-29T21:55:39;97557.84;;;17.43;100.00
33781;BME280;20097;50.832;19.100;2023-07-29T22:00:44;97561.19;;;17.38;100.00
33781;BME280;20097;50.832;19.100;2023-07-29T22:05:50;97556.44;;;17.40;100.00
33781;BME280;20097;50.832;19.100;2023-07-29T22:11:20;97561.09;;;17.45;100.00
33781;BME280;20097;50.832;19.100;2023-07-29T22:16:25;97563.47;;;17.46;100.00
33781;BME280;20097;50.832;19.100;2023-07-29T22:21:31;97557.50;;;17.39;100.00
33781;BME280;20097;50.832;19.100;2023-07-29T22:26:35;97556.44;;;17.40;100.00
33781;BME280;20097;50.832;19.100;2023-07-29T22:31:40;97558.84;;;17.42;100.00
33781;BME280;20097;50.832;19.100;2023-07-29T22:36:46;97557.84;;;17.43;100.00
33781;BME280;20097;50.832;19.100;2023-07-29T22:41:50;97565.75;;;17.43;100.00
33781;BME280;20097;50.832;19.100;2023-07-29T22:46:55;97564.28;;;17.35;100.00
33781;BME280;20097;50.832;19.100;2023-07-29T22:52:01;97566.13;;;17.35;100.00
33781;BME280;20097;50.832;19.100;2023-07-29T22:57:06;97572.19;;;17.35;100.00
33781;BME280;20097;50.832;19.100;2023-07-29T23:02:10;97568.44;;;17.31;100.00
33781;BME280;20097;50.832;19.100;2023-07-29T23:07:16;97557.97;;;17.36;100.00
33781;BME280;20097;50.832;19.100;2023-07-29T23:12:20;97539.13;;;17.44;100.00
33781;BME280;20097;50.832;19.100;2023-07-29T23:17:25;97547.97;;;17.50;100.00
33781;BME280;20097;50.832;19.100;2023-07-29T23:22:30;97559.31;;;17.50;100.00
33781;BME280;20097;50.832;19.100;2023-07-29T23:27:35;97563.66;;;17.56;100.00
33781;BME280;20097;50.832;19.100;2023-07-29T23:32:39;97578.94;;;17.54;100.00
33781;BME280;20097;50.832;19.100;2023-07-29T23:37:45;97585.94;;;17.49;100.00
33781;BME280;20097;50.832;19.100;2023-07-29T23:42:53;97589.97;;;17.51;100.00
33781;BME280;20097;50.832;19.100;2023-07-29T23:47:57;97602.13;;;17.52;100.00
33781;BME280;20097;50.832;19.100;2023-07-29T23:53:03;97620.13;;;17.55;100.00
33781;BME280;20097;50.832;19.100;2023-07-29T23:58:07;97617.91;;;17.64;100.00
